createdAt,value
2023-03-06T00:01:21.893Z,11.55
2023-03-06T00:04:10.745Z,12.88
2023-03-06T00:09:34.320Z,17.05
2023-03-06T00:12:00.965Z,12.73
2023-03-06T00:14:46.052Z,11.77
2023-03-06T00:17:13.021Z,14.38
2023-03-06T00:19:57.773Z,13.35
2023-03-06T00:22:24.654Z,17.05
2023-03-06T00:25:07.588Z,9.67
2023-03-06T00:27:34.617Z,15.88
2023-03-06T00:30:21.841Z,10.25
2023-03-06T00:32:48.682Z,15.65
2023-03-06T00:35:27.172Z,15.73
2023-03-06T00:38:16.364Z,12.83
2023-03-06T00:40:44.187Z,15.25
2023-03-06T00:43:25.518Z,13.98
2023-03-06T00:46:08.428Z,13.32
2023-03-06T00:48:35.366Z,22.30
2023-03-06T00:51:02.178Z,14.10
2023-03-06T00:53:37.954Z,19.08
2023-03-06T00:56:05.063Z,14.48
2023-03-06T00:58:50.469Z,14.45
2023-03-06T01:01:37.909Z,13.38
2023-03-06T01:04:16.789Z,20.37
2023-03-06T01:09:47.133Z,25.05
2023-03-06T01:12:29.199Z,19.45
2023-03-06T01:14:56.194Z,18.63
2023-03-06T01:17:41.201Z,21.07
2023-03-06T01:20:23.319Z,23.23
2023-03-06T01:22:50.132Z,19.13
2023-03-06T01:25:17.049Z,22.73
2023-03-06T01:28:05.277Z,23.02
2023-03-06T01:30:32.123Z,19.20
2023-03-06T01:35:39.865Z,24.10
2023-03-06T01:40:50.047Z,21.05
2023-03-06T01:43:40.564Z,18.63
2023-03-06T01:46:31.783Z,22.48
2023-03-06T01:52:49.606Z,18.13
2023-03-06T02:08:54.844Z,26.95
2023-03-06T02:11:36.976Z,24.30
2023-03-06T02:16:44.839Z,22.27
2023-03-06T02:19:39.821Z,15.38
2023-03-06T02:22:06.774Z,16.38
2023-03-06T02:24:56.692Z,19.30
2023-03-06T02:27:24.986Z,18.90
2023-03-06T02:29:51.738Z,17.17
2023-03-06T02:32:32.456Z,15.60
2023-03-06T02:34:59.161Z,16.75
2023-03-06T02:40:14.510Z,15.52
2023-03-06T02:43:03.069Z,21.92
2023-03-06T02:45:53.962Z,15.48
2023-03-06T02:48:21.343Z,19.63
2023-03-06T02:50:48.306Z,27.67
2023-03-06T02:53:32.466Z,15.75
2023-03-06T02:55:59.100Z,16.45
2023-03-06T02:58:25.892Z,17.50
2023-03-06T03:01:02.916Z,16.23
2023-03-06T03:03:30.128Z,20.27
2023-03-06T03:05:57.102Z,13.20
2023-03-06T03:08:29.969Z,22.77
2023-03-06T03:10:57.819Z,12.65
2023-03-06T03:13:25.484Z,24.35
2023-03-06T03:16:14.230Z,9.87
2023-03-06T03:18:42.246Z,12.98
2023-03-06T03:21:25.265Z,17.25
2023-03-06T03:23:52.252Z,11.18
2023-03-06T03:26:36.808Z,11.25
2023-03-06T03:29:03.829Z,22.60
2023-03-06T03:31:31.493Z,13.40
2023-03-06T03:34:14.313Z,12.23
2023-03-06T03:36:41.186Z,10.65
2023-03-06T03:44:35.864Z,10.60
2023-03-06T03:47:02.817Z,23.38
2023-03-06T03:49:40.405Z,13.07
2023-03-06T03:52:31.302Z,11.13
2023-03-06T03:55:07.859Z,12.27
2023-03-06T04:00:35.454Z,22.77
2023-03-06T04:03:08.090Z,11.88
2023-03-06T04:05:57.211Z,10.70
2023-03-06T04:08:37.649Z,21.63
2023-03-06T04:11:04.709Z,17.25
2023-03-06T04:13:43.169Z,14.27
2023-03-06T04:16:09.902Z,11.15
2023-03-06T04:18:39.637Z,11.18
2023-03-06T04:21:06.612Z,10.70
2023-03-06T04:23:50.063Z,14.43
2023-03-06T04:26:16.826Z,11.55
2023-03-06T04:29:01.906Z,15.15
2023-03-06T04:31:28.720Z,15.10
2023-03-06T04:34:10.720Z,10.67
2023-03-06T04:36:37.506Z,8.52
2023-03-06T04:39:04.441Z,7.88
2023-03-06T04:41:43.758Z,9.93
2023-03-06T04:44:10.654Z,12.52
2023-03-06T04:46:55.615Z,8.03
2023-03-06T04:49:22.509Z,10.25
2023-03-06T04:52:07.565Z,9.88
2023-03-06T04:54:34.410Z,11.25
2023-03-06T04:57:01.167Z,21.33
2023-03-06T04:59:27.846Z,9.10
2023-03-06T05:01:55.812Z,17.50
2023-03-06T05:04:22.454Z,7.60
2023-03-06T05:06:50.480Z,21.00
2023-03-06T05:09:17.224Z,14.65
2023-03-06T05:11:44.023Z,10.97
2023-03-06T05:14:10.973Z,10.07
2023-03-06T05:16:38.006Z,9.95
2023-03-06T05:19:04.808Z,11.32
2023-03-06T05:21:31.536Z,14.00
2023-03-06T05:24:03.876Z,11.93
2023-03-06T05:26:39.854Z,10.20
2023-03-06T05:29:20.617Z,11.18
2023-03-06T05:31:47.551Z,20.90
2023-03-06T05:34:22.958Z,8.98
2023-03-06T05:37:08.471Z,9.83
2023-03-06T05:39:35.118Z,19.70
2023-03-06T05:42:02.077Z,5.90
2023-03-06T05:44:35.554Z,9.32
2023-03-06T05:47:03.113Z,20.95
2023-03-06T05:49:49.367Z,9.47
2023-03-06T05:52:16.145Z,9.85
2023-03-06T05:54:42.932Z,8.70
2023-03-06T05:57:27.130Z,20.10
2023-03-06T05:59:53.848Z,11.68
2023-03-06T06:02:20.980Z,7.57
2023-03-06T06:05:02.038Z,8.80
2023-03-06T06:07:28.674Z,5.53
2023-03-06T06:12:36.203Z,9.55
2023-03-06T06:15:03.033Z,8.60
2023-03-06T06:17:50.113Z,8.65
2023-03-06T06:20:16.807Z,5.60
2023-03-06T06:22:55.794Z,17.73
2023-03-06T06:25:22.580Z,19.45
2023-03-06T06:27:49.404Z,7.20
2023-03-06T06:30:16.485Z,9.45
2023-03-06T06:32:56.082Z,12.35
2023-03-06T06:35:23.111Z,12.07
2023-03-06T06:37:49.912Z,7.85
2023-03-06T06:40:31.744Z,5.97
2023-03-06T06:42:58.435Z,7.35
2023-03-06T06:45:25.056Z,7.30
2023-03-06T06:48:10.808Z,7.70
2023-03-06T06:50:38.196Z,8.05
2023-03-06T06:53:05.071Z,10.33
2023-03-06T06:55:43.400Z,10.38
2023-03-06T06:58:10.033Z,14.10
2023-03-06T07:00:48.846Z,7.65
2023-03-06T07:03:16.189Z,16.27
2023-03-06T07:05:54.561Z,6.87
2023-03-06T07:08:27.502Z,11.60
2023-03-06T07:10:54.404Z,7.13
2023-03-06T07:13:29.528Z,16.23
2023-03-06T07:15:56.348Z,10.10
2023-03-06T07:18:29.332Z,3.50
2023-03-06T07:20:57.933Z,7.82
2023-03-06T07:23:38.214Z,8.90
2023-03-06T07:26:07.436Z,13.80
2023-03-06T07:28:52.652Z,6.63
2023-03-06T07:34:04.826Z,8.63
2023-03-06T07:36:38.087Z,9.80
2023-03-06T07:39:04.813Z,6.03
2023-03-06T07:41:45.121Z,5.15
2023-03-06T07:44:11.955Z,11.07
2023-03-06T07:46:48.852Z,14.65
2023-03-06T07:49:16.553Z,13.98
2023-03-06T07:51:43.458Z,17.15
2023-03-06T07:54:22.562Z,5.40
2023-03-06T07:56:52.147Z,6.80
2023-03-06T07:59:27.817Z,11.00
2023-03-06T08:01:55.870Z,4.25
2023-03-06T08:04:22.446Z,6.22
2023-03-06T08:07:01.081Z,5.65
2023-03-06T08:09:28.041Z,6.90
2023-03-06T08:11:54.881Z,6.28
2023-03-06T08:14:21.874Z,7.35
2023-03-06T08:16:48.537Z,6.22
2023-03-06T08:19:15.876Z,5.95
2023-03-06T08:22:06.266Z,3.60
2023-03-06T08:24:34.202Z,7.35
2023-03-06T08:27:10.346Z,5.65
2023-03-06T08:29:36.931Z,14.02
2023-03-06T08:32:15.960Z,8.13
2023-03-06T08:34:42.872Z,7.97
2023-03-06T08:37:09.507Z,11.80
2023-03-06T08:39:36.229Z,7.57
2023-03-06T08:42:11.589Z,3.53
2023-03-06T08:44:38.375Z,12.52
2023-03-06T08:47:23.319Z,5.90
2023-03-06T08:49:49.954Z,13.80
2023-03-06T08:52:26.775Z,7.68
2023-03-06T08:54:53.434Z,10.15
2023-03-06T09:00:30.276Z,3.93
2023-03-06T09:03:08.530Z,4.95
2023-03-06T09:05:35.484Z,4.28
2023-03-06T09:08:17.142Z,4.95
2023-03-06T09:10:47.843Z,4.47
2023-03-06T09:13:17.884Z,3.40
2023-03-06T09:15:44.772Z,8.82
2023-03-06T09:18:19.881Z,4.03
2023-03-06T09:20:46.597Z,4.57
2023-03-06T09:23:26.798Z,6.95
2023-03-06T09:28:39.951Z,6.68
2023-03-06T09:31:20.554Z,3.25
2023-03-06T09:33:59.249Z,3.78
2023-03-06T09:36:55.614Z,2.42
2023-03-06T09:39:13.473Z,3.03
2023-03-06T09:41:56.015Z,4.13
2023-03-06T09:44:44.331Z,2.03
2023-03-06T09:47:45.246Z,2.15
2023-03-06T09:51:06.765Z,2.30
2023-03-06T09:53:39.305Z,6.27
2023-03-06T09:56:36.163Z,3.75
2023-03-06T09:59:17.788Z,4.82
2023-03-06T10:02:29.521Z,6.90
2023-03-06T10:05:00.568Z,4.28
2023-03-06T10:07:45.231Z,8.20
2023-03-06T10:10:18.875Z,6.13
2023-03-06T10:13:00.348Z,4.43
2023-03-06T10:15:32.896Z,14.02
2023-03-06T10:17:59.933Z,9.02
2023-03-06T10:20:33.649Z,4.00
2023-03-06T10:23:07.933Z,5.35
2023-03-06T10:25:57.141Z,5.28
2023-03-06T10:28:48.353Z,6.57
2023-03-06T10:31:29.880Z,3.15
2023-03-06T10:34:15.106Z,11.20
2023-03-06T10:36:41.790Z,2.85
2023-03-06T10:39:22.641Z,6.43
2023-03-06T10:41:49.781Z,7.85
2023-03-06T10:44:24.975Z,3.70
2023-03-06T10:46:53.211Z,4.90
2023-03-06T10:49:34.634Z,7.00
2023-03-06T10:52:03.257Z,3.55
2023-03-06T10:54:33.668Z,9.43
2023-03-06T10:57:19.708Z,6.65
2023-03-06T10:59:56.872Z,5.60
2023-03-06T11:02:30.710Z,7.60
2023-03-06T11:05:19.800Z,5.45
2023-03-06T11:08:00.312Z,10.02
2023-03-06T11:10:40.289Z,3.65
2023-03-06T11:13:38.051Z,6.50
2023-03-06T11:16:18.504Z,4.65
2023-03-06T11:19:05.098Z,5.80
2023-03-06T11:22:06.106Z,4.72
2023-03-06T11:24:39.430Z,6.63
2023-03-06T11:27:29.711Z,4.20
2023-03-06T11:29:59.602Z,4.60
2023-03-06T11:32:43.858Z,5.22
2023-03-06T11:35:15.177Z,5.22
2023-03-06T11:37:57.090Z,4.00
2023-03-06T11:40:31.886Z,3.83
2023-03-06T11:43:18.999Z,2.85
2023-03-06T11:46:07.604Z,4.30
2023-03-06T11:49:01.288Z,11.70
2023-03-06T11:51:51.556Z,5.80
2023-03-06T11:54:18.267Z,6.07
2023-03-06T11:56:59.634Z,5.68
2023-03-06T11:59:48.016Z,7.30
2023-03-06T12:02:39.331Z,10.98
2023-03-06T12:05:30.150Z,5.78
2023-03-06T12:08:35.406Z,7.40
2023-03-06T12:13:56.344Z,6.05
2023-03-06T12:16:42.032Z,9.98
2023-03-06T12:19:39.961Z,14.98
2023-03-06T12:22:26.003Z,15.37
2023-03-06T12:25:19.399Z,10.48
2023-03-06T12:28:30.093Z,8.55
2023-03-06T12:31:28.031Z,15.65
2023-03-06T12:34:44.716Z,11.98
2023-03-06T12:38:15.650Z,8.43
2023-03-06T12:41:10.078Z,8.38
2023-03-06T12:44:21.921Z,8.40
2023-03-06T12:47:06.868Z,8.88
2023-03-06T12:49:33.780Z,9.75
2023-03-06T12:52:02.328Z,11.80
2023-03-06T12:54:33.967Z,10.35
2023-03-06T12:57:01.048Z,12.82
2023-03-06T12:59:49.390Z,11.32
2023-03-06T13:02:34.876Z,16.27
2023-03-06T13:05:23.291Z,11.07
2023-03-06T13:11:38.292Z,13.48
2023-03-06T13:14:34.287Z,10.55
2023-03-06T13:17:20.911Z,14.30
2023-03-06T13:19:49.040Z,14.27
2023-03-06T13:22:30.131Z,14.98
2023-03-06T13:25:19.283Z,12.82
2023-03-06T13:27:52.620Z,12.45
2023-03-06T13:30:39.068Z,15.73
2023-03-06T13:33:27.527Z,11.37
2023-03-06T13:36:20.237Z,13.90
2023-03-06T13:39:01.981Z,9.32
2023-03-06T13:41:31.666Z,15.90
2023-03-06T13:48:05.860Z,11.90
2023-03-06T13:50:47.850Z,9.30
2023-03-06T13:53:53.114Z,10.68
2023-03-06T13:56:43.170Z,14.10
2023-03-06T13:59:40.674Z,14.90
2023-03-06T14:08:27.258Z,12.60
2023-03-06T14:11:20.663Z,15.90
2023-03-06T14:13:53.889Z,8.45
2023-03-06T14:16:23.920Z,9.50
2023-03-06T14:18:57.586Z,9.23
2023-03-06T14:21:49.016Z,10.55
2023-03-06T14:24:36.764Z,16.23
2023-03-06T14:27:19.284Z,11.10
2023-03-06T14:30:08.616Z,9.73
2023-03-06T14:32:44.755Z,14.05
2023-03-06T14:35:32.008Z,9.32
2023-03-06T14:38:14.351Z,7.65
2023-03-06T14:40:47.349Z,8.18
2023-03-06T14:43:35.090Z,11.13
2023-03-06T14:46:21.533Z,9.90
2023-03-06T14:48:59.277Z,11.73
2023-03-06T14:51:29.844Z,15.10
2023-03-06T14:56:56.526Z,10.30
2023-03-06T15:02:39.924Z,10.70
2023-03-06T15:05:28.901Z,13.48
2023-03-06T15:08:00.941Z,10.38
2023-03-06T15:10:34.215Z,10.50
2023-03-06T15:13:21.274Z,9.73
2023-03-06T15:16:29.909Z,11.15
2023-03-06T15:19:04.309Z,9.68
2023-03-06T15:21:47.819Z,12.73
2023-03-06T15:24:57.392Z,12.13
2023-03-06T15:27:33.439Z,11.50
2023-03-06T15:30:42.130Z,14.50
2023-03-06T15:33:31.208Z,10.57
2023-03-06T15:36:03.651Z,9.82
2023-03-06T15:38:45.339Z,14.57
2023-03-06T15:41:34.798Z,12.00
2023-03-06T15:44:16.939Z,11.25
2023-03-06T15:46:43.632Z,11.85
2023-03-06T15:49:32.692Z,13.50
2023-03-06T15:51:59.362Z,11.73
2023-03-06T15:54:33.054Z,11.70
2023-03-06T15:57:16.018Z,10.55
2023-03-06T16:00:00.297Z,9.18
2023-03-06T16:02:27.694Z,11.85
2023-03-06T16:05:00.160Z,13.77
2023-03-06T16:07:28.403Z,14.00
2023-03-06T16:09:56.825Z,14.25
2023-03-06T16:12:32.236Z,14.35
2023-03-06T16:15:01.948Z,12.68
2023-03-06T16:17:28.895Z,15.73
2023-03-06T16:19:55.628Z,18.85
2023-03-06T16:22:46.838Z,16.98
2023-03-06T16:25:14.622Z,21.70
2023-03-06T16:27:59.347Z,18.55
2023-03-06T16:30:28.506Z,20.43
2023-03-06T16:33:09.261Z,19.88
2023-03-06T16:35:36.343Z,20.63
2023-03-06T16:38:23.305Z,18.98
2023-03-06T16:40:58.972Z,21.55
2023-03-06T16:43:25.649Z,22.70
2023-03-06T16:46:08.289Z,19.98
2023-03-06T16:51:22.851Z,19.85
2023-03-06T16:53:58.609Z,20.67
2023-03-06T16:56:25.275Z,17.37
2023-03-06T16:59:11.106Z,19.05
2023-03-06T17:01:39.699Z,19.02
2023-03-06T17:04:25.715Z,18.65
2023-03-06T17:07:06.264Z,19.63
2023-03-06T17:09:33.191Z,16.20
2023-03-06T17:12:10.064Z,19.55
2023-03-06T17:14:36.875Z,16.45
2023-03-06T17:17:06.150Z,20.52
2023-03-06T17:19:33.127Z,16.15
2023-03-06T17:22:02.587Z,20.47
2023-03-06T17:24:29.687Z,19.58
2023-03-06T17:27:14.417Z,17.45
2023-03-06T17:29:56.992Z,20.75
2023-03-06T17:32:37.911Z,18.15
2023-03-06T17:35:05.159Z,22.47
2023-03-06T17:37:38.073Z,25.15
2023-03-06T17:40:27.088Z,22.40
2023-03-06T17:43:09.351Z,29.25
2023-03-06T17:45:57.048Z,23.92
2023-03-06T17:48:36.403Z,24.50
2023-03-06T17:51:29.265Z,21.65
2023-03-06T17:54:05.287Z,22.02
2023-03-06T17:59:36.707Z,22.25
2023-03-06T18:02:12.659Z,24.27
2023-03-06T18:04:39.544Z,28.88
2023-03-06T18:07:08.880Z,27.05
2023-03-06T18:09:35.836Z,28.25
2023-03-06T18:12:02.690Z,25.42
2023-03-06T18:14:29.584Z,29.53
2023-03-06T18:16:56.396Z,30.63
2023-03-06T18:19:23.897Z,26.90
2023-03-06T18:21:53.732Z,26.55
2023-03-06T18:24:20.771Z,27.45
2023-03-06T18:26:49.792Z,28.93
2023-03-06T18:29:16.810Z,25.52
2023-03-06T18:31:44.560Z,32.13
2023-03-06T18:34:13.964Z,30.88
2023-03-06T18:36:41.616Z,28.10
2023-03-06T18:39:10.094Z,31.40
2023-03-06T18:41:37.658Z,29.83
2023-03-06T18:44:05.034Z,36.55
2023-03-06T18:46:34.042Z,28.13
2023-03-06T18:49:01.365Z,30.10
2023-03-06T18:51:36.212Z,28.73
2023-03-06T18:54:20.156Z,27.13
2023-03-06T18:56:47.034Z,30.83
2023-03-06T18:59:18.210Z,28.08
2023-03-06T19:01:47.992Z,30.65
2023-03-06T19:04:17.810Z,31.17
2023-03-06T19:10:04.996Z,31.95
2023-03-06T19:12:38.800Z,28.63
2023-03-06T19:15:42.256Z,36.92
2023-03-06T19:18:17.932Z,31.57
2023-03-06T19:20:45.141Z,33.60
2023-03-06T19:23:22.680Z,32.47
2023-03-06T19:25:56.961Z,29.95
2023-03-06T19:28:23.878Z,32.47
2023-03-06T19:32:11.396Z,31.60
2023-03-06T19:34:12.062Z,33.00
2023-03-06T19:36:54.231Z,31.08
2023-03-06T19:39:32.563Z,34.58
2023-03-06T19:42:28.210Z,34.78
2023-03-06T19:44:57.024Z,34.43
2023-03-06T19:47:23.787Z,37.00
2023-03-06T19:49:50.595Z,32.95
2023-03-06T19:52:17.542Z,36.13
2023-03-06T19:54:50.207Z,35.63
2023-03-06T19:57:18.873Z,35.33
2023-03-06T19:59:49.893Z,32.30
2023-03-06T20:02:18.292Z,39.28
2023-03-06T20:04:45.375Z,37.22
2023-03-06T20:07:12.372Z,36.35
2023-03-06T20:09:39.099Z,36.67
2023-03-06T20:12:08.208Z,34.03
2023-03-06T20:14:35.077Z,35.78
2023-03-06T20:17:01.795Z,34.58
2023-03-06T20:19:28.841Z,33.53
2023-03-06T20:21:55.511Z,34.80
2023-03-06T20:24:22.411Z,34.28
2023-03-06T20:26:49.256Z,36.45
2023-03-06T20:29:16.052Z,34.03
2023-03-06T20:31:42.942Z,30.17
2023-03-06T20:34:10.948Z,31.20
2023-03-06T20:36:39.931Z,32.88
2023-03-06T20:39:09.813Z,30.10
2023-03-06T20:41:36.868Z,30.10
2023-03-06T20:44:17.681Z,26.27
2023-03-06T20:46:45.134Z,28.40
2023-03-06T20:49:12.889Z,29.17
2023-03-06T20:51:41.769Z,27.02
2023-03-06T20:54:10.676Z,24.38
2023-03-06T20:56:37.990Z,26.95
2023-03-06T20:59:05.139Z,24.90
2023-03-06T21:01:39.619Z,25.45
2023-03-06T21:04:06.716Z,25.65
2023-03-06T21:06:33.530Z,31.77
2023-03-06T21:09:01.280Z,27.23
2023-03-06T21:11:28.521Z,27.13
2023-03-06T21:13:55.958Z,27.83
2023-03-06T21:16:25.062Z,29.30
2023-03-06T21:18:53.765Z,27.60
2023-03-06T21:21:22.684Z,27.73
2023-03-06T21:23:49.824Z,24.97
2023-03-06T21:26:19.944Z,27.63
2023-03-06T21:28:46.707Z,18.48
2023-03-06T21:31:15.972Z,19.45
2023-03-06T21:33:43.631Z,17.02
2023-03-06T21:36:10.738Z,14.77
2023-03-06T21:38:50.114Z,13.57
2023-03-06T21:41:19.329Z,15.30
2023-03-06T21:43:46.199Z,16.77
2023-03-06T21:46:13.071Z,17.70
2023-03-06T21:48:39.938Z,12.83
2023-03-06T21:51:14.811Z,14.18
2023-03-06T21:53:45.145Z,11.25
2023-03-06T21:56:13.416Z,12.63
2023-03-06T21:58:43.450Z,10.00
2023-03-06T22:01:11.266Z,8.70
2023-03-06T22:03:38.445Z,7.22
2023-03-06T22:06:16.753Z,8.80
2023-03-06T22:09:04.004Z,7.85
2023-03-06T22:11:31.409Z,9.88
2023-03-06T22:14:13.628Z,7.67
2023-03-06T22:16:40.924Z,10.23
2023-03-06T22:19:11.826Z,12.85
2023-03-06T22:21:38.514Z,9.30
2023-03-06T22:24:08.716Z,9.48
2023-03-06T22:29:16.085Z,10.70
2023-03-06T22:31:55.352Z,10.32
2023-03-06T22:34:22.105Z,11.98
2023-03-06T22:36:48.889Z,7.72
2023-03-06T22:45:29.083Z,9.18
2023-03-06T23:09:50.897Z,17.30
2023-03-06T23:12:39.417Z,14.88
2023-03-06T23:15:24.350Z,14.45
2023-03-06T23:17:53.270Z,13.57
2023-03-06T23:20:41.986Z,19.43
2023-03-06T23:23:09.019Z,23.48
2023-03-06T23:25:49.333Z,18.60
2023-03-06T23:28:26.793Z,15.60
2023-03-06T23:31:00.954Z,19.10
2023-03-06T23:33:47.255Z,20.67
2023-03-06T23:36:31.307Z,18.63
2023-03-06T23:39:07.972Z,17.88
2023-03-06T23:41:44.023Z,18.30
2023-03-06T23:44:20.018Z,14.35
2023-03-06T23:46:53.616Z,17.57
2023-03-06T23:55:02.769Z,12.52
2023-03-06T23:57:35.549Z,15.55
